Time;durP1;ratioP1;P1;durP2;ratioP2;P2;SDS_P1;SDS_P2;PMS_P1;PMS_P2;Temp;Humidity;BMP_temperature;BMP_pressure;BME280_temperature;BME280_humidity;BME280_pressure;Samples;Min_cycle;Max_cycle;Signal;HPM_P1;HPM_P2
2021/04/14 00:01:04;;;;;;;10.02;4.68;;;;;;;;;;5087392;28;20044;-68
2021/04/14 00:03:31;;;;;;;7.30;4.15;;;;;;;;;;5079056;28;20431;-68
2021/04/14 00:05:57;;;;;;;8.40;5.00;;;;;;;;;;5086347;28;20056;-68
2021/04/14 00:08:23;;;;;;;5.80;3.42;;;;;;;;;;5083171;28;20044;-68
2021/04/14 00:10:50;;;;;;;7.03;3.67;;;;;;;;;;5087292;28;20048;-68
2021/04/14 00:13:20;;;;;;;9.95;4.80;;;;;;;;;;5082237;28;20519;-68
2021/04/14 00:15:49;;;;;;;7.07;4.30;;;;;;;;;;5085130;28;20473;-68
2021/04/14 00:18:15;;;;;;;7.68;4.60;;;;;;;;;;5080591;28;20851;-68
2021/04/14 00:20:42;;;;;;;7.63;4.50;;;;;;;;;;5081019;28;20044;-68
2021/04/14 00:23:08;;;;;;;9.90;5.13;;;;;;;;;;5084493;28;20052;-67
2021/04/14 00:25:39;;;;;;;9.63;5.43;;;;;;;;;;5080224;28;20056;-68
2021/04/14 00:28:05;;;;;;;8.18;4.40;;;;;;;;;;5083525;28;20054;-68
2021/04/14 00:30:31;;;;;;;9.65;4.43;;;;;;;;;;5084060;28;20130;-68
2021/04/14 00:32:58;;;;;;;8.32;4.03;;;;;;;;;;5086076;28;20055;-68
2021/04/14 00:35:26;;;;;;;6.28;3.67;;;;;;;;;;5080419;28;20077;-68
2021/04/14 00:37:52;;;;;;;7.72;4.40;;;;;;;;;;5079652;28;20047;-68
2021/04/14 00:40:22;;;;;;;8.23;3.92;;;;;;;;;;5081242;28;20041;-68
2021/04/14 00:42:48;;;;;;;7.40;4.78;;;;;;;;;;5081276;28;20074;-68
2021/04/14 00:45:15;;;;;;;7.13;3.60;;;;;;;;;;5078243;28;20040;-68
2021/04/14 00:47:41;;;;;;;5.95;3.58;;;;;;;;;;5078757;28;20058;-68
2021/04/14 00:50:09;;;;;;;10.88;5.38;;;;;;;;;;5077874;28;20056;-68
2021/04/14 00:52:35;;;;;;;6.28;3.58;;;;;;;;;;5076557;28;20056;-68
2021/04/14 00:55:01;;;;;;;8.85;4.25;;;;;;;;;;5078363;28;20129;-68
2021/04/14 00:57:27;;;;;;;9.18;4.60;;;;;;;;;;5080509;28;20083;-68
2021/04/14 00:59:53;;;;;;;8.15;3.83;;;;;;;;;;5079575;28;20166;-68
2021/04/14 01:02:19;;;;;;;6.95;3.55;;;;;;;;;;5079373;28;20082;-68
2021/04/14 01:04:44;;;;;;;13.48;6.95;;;;;;;;;;5081038;28;20576;-68
2021/04/14 01:07:11;;;;;;;8.02;4.18;;;;;;;;;;5081443;28;20044;-68
2021/04/14 01:09:38;;;;;;;7.50;4.15;;;;;;;;;;5082459;28;20066;-69
2021/04/14 01:12:05;;;;;;;5.70;3.78;;;;;;;;;;5079451;28;20515;-68
2021/04/14 01:14:31;;;;;;;7.22;4.43;;;;;;;;;;5077799;28;20062;-68
2021/04/14 01:16:57;;;;;;;7.95;4.45;;;;;;;;;;5076896;28;20040;-68
2021/04/14 01:19:23;;;;;;;7.75;4.30;;;;;;;;;;5079461;28;20488;-68
2021/04/14 01:21:50;;;;;;;5.57;3.15;;;;;;;;;;5081018;28;20048;-68
2021/04/14 01:24:17;;;;;;;7.50;4.22;;;;;;;;;;5079676;28;20074;-67
2021/04/14 01:26:44;;;;;;;8.27;4.60;;;;;;;;;;5080481;28;20044;-67
2021/04/14 01:29:10;;;;;;;8.32;4.90;;;;;;;;;;5083522;28;20064;-67
2021/04/14 01:31:37;;;;;;;10.57;6.20;;;;;;;;;;5082513;28;20040;-68
2021/04/14 01:34:05;;;;;;;9.15;5.18;;;;;;;;;;5080274;28;20040;-68
2021/04/14 01:36:31;;;;;;;8.75;5.07;;;;;;;;;;5080276;28;20597;-68
2021/04/14 01:38:58;;;;;;;9.20;4.90;;;;;;;;;;5078033;28;20056;-68
2021/04/14 01:41:24;;;;;;;11.10;5.40;;;;;;;;;;5079341;28;20044;-68
2021/04/14 01:43:50;;;;;;;12.50;6.38;;;;;;;;;;5077619;28;20048;-67
2021/04/14 01:46:17;;;;;;;7.50;4.72;;;;;;;;;;5079744;28;20059;-67
2021/04/14 01:48:43;;;;;;;8.40;4.53;;;;;;;;;;5080312;28;20048;-67
2021/04/14 01:51:09;;;;;;;7.30;4.13;;;;;;;;;;5082028;28;20048;-67
2021/04/14 01:53:35;;;;;;;10.70;4.57;;;;;;;;;;5081016;28;20063;-67
2021/04/14 01:56:02;;;;;;;10.98;4.72;;;;;;;;;;5085542;28;20501;-67
2021/04/14 01:58:30;;;;;;;7.38;4.13;;;;;;;;;;5083518;28;20045;-68
2021/04/14 02:00:59;;;;;;;8.90;4.80;;;;;;;;;;5082524;28;20420;-67
2021/04/14 02:03:27;;;;;;;9.57;5.20;;;;;;;;;;5082284;28;20134;-68
2021/04/14 02:05:53;;;;;;;7.10;3.92;;;;;;;;;;5081097;28;20499;-67
2021/04/14 02:08:19;;;;;;;9.38;4.32;;;;;;;;;;5082548;28;20057;-67
2021/04/14 02:10:46;;;;;;;7.97;4.10;;;;;;;;;;5081585;28;20049;-68
2021/04/14 02:13:15;;;;;;;8.88;4.40;;;;;;;;;;5084324;28;20056;-67
2021/04/14 02:15:41;;;;;;;13.35;5.18;;;;;;;;;;5079859;28;20096;-68
2021/04/14 02:18:07;;;;;;;10.00;5.22;;;;;;;;;;5083899;28;20045;-67
2021/04/14 02:20:34;;;;;;;10.48;5.18;;;;;;;;;;5080424;28;20055;-67
2021/04/14 02:23:10;;;;;;;8.00;5.28;;;;;;;;;;5079307;28;20098;-68
2021/04/14 02:25:36;;;;;;;7.78;4.60;;;;;;;;;;5079296;28;20481;-67
2021/04/14 02:28:02;;;;;;;6.97;4.00;;;;;;;;;;5085025;28;20082;-67
2021/04/14 02:30:29;;;;;;;7.93;4.10;;;;;;;;;;5080976;28;20455;-67
2021/04/14 02:32:56;;;;;;;7.72;4.25;;;;;;;;;;5082337;28;20056;-68
2021/04/14 02:35:24;;;;;;;7.32;4.50;;;;;;;;;;5080441;28;20048;-67
2021/04/14 02:37:50;;;;;;;8.10;4.80;;;;;;;;;;5082820;28;20052;-67
2021/04/14 02:40:16;;;;;;;8.80;4.30;;;;;;;;;;5082566;28;20051;-67
2021/04/14 02:42:42;;;;;;;7.38;3.97;;;;;;;;;;5084973;28;20052;-67
2021/04/14 02:45:10;;;;;;;10.13;4.75;;;;;;;;;;5081827;28;20075;-68
2021/04/14 02:47:37;;;;;;;7.60;4.68;;;;;;;;;;5085526;28;20528;-67
2021/04/14 02:50:04;;;;;;;8.38;4.78;;;;;;;;;;5080251;28;20037;-68
2021/04/14 02:52:30;;;;;;;7.30;4.72;;;;;;;;;;5085291;28;20508;-67
2021/04/14 02:54:56;;;;;;;10.07;4.88;;;;;;;;;;5080208;28;20148;-67
2021/04/14 02:57:22;;;;;;;7.68;4.25;;;;;;;;;;5082510;28;20658;-67
2021/04/14 02:59:48;;;;;;;8.27;4.28;;;;;;;;;;5079535;28;20465;-67
2021/04/14 03:02:14;;;;;;;8.27;4.07;;;;;;;;;;5081698;28;20131;-67
2021/04/14 03:04:41;;;;;;;6.78;4.13;;;;;;;;;;5080698;28;20553;-67
2021/04/14 03:07:07;;;;;;;6.65;4.22;;;;;;;;;;5085091;28;20044;-67
2021/04/14 03:09:33;;;;;;;7.72;3.75;;;;;;;;;;5080315;28;20052;-67
2021/04/14 03:11:59;;;;;;;6.47;3.88;;;;;;;;;;5082290;28;20052;-67
2021/04/14 03:14:25;;;;;;;7.47;4.30;;;;;;;;;;5082328;28;20461;-67
2021/04/14 03:16:51;;;;;;;9.18;5.28;;;;;;;;;;5080916;28;20091;-67
2021/04/14 03:19:17;;;;;;;8.25;4.38;;;;;;;;;;5078958;28;20048;-67
2021/04/14 03:21:44;;;;;;;8.02;4.13;;;;;;;;;;5079583;28;20076;-67
2021/04/14 03:24:10;;;;;;;7.80;4.00;;;;;;;;;;5081781;28;20059;-67
2021/04/14 03:26:36;;;;;;;7.97;4.18;;;;;;;;;;5081235;28;20040;-67
2021/04/14 03:29:03;;;;;;;7.47;4.05;;;;;;;;;;5080427;28;20051;-67
2021/04/14 03:31:29;;;;;;;8.43;3.42;;;;;;;;;;5079448;28;20051;-67
2021/04/14 03:33:55;;;;;;;6.47;3.88;;;;;;;;;;5080987;28;20483;-67
2021/04/14 03:36:21;;;;;;;8.75;4.70;;;;;;;;;;5077390;28;20059;-67
2021/04/14 03:38:48;;;;;;;8.60;4.82;;;;;;;;;;5077474;28;20055;-67
2021/04/14 03:41:14;;;;;;;8.30;4.88;;;;;;;;;;5079322;28;20048;-67
2021/04/14 03:43:40;;;;;;;9.27;5.03;;;;;;;;;;5070284;28;20485;-67
2021/04/14 03:46:07;;;;;;;8.43;4.88;;;;;;;;;;5082242;28;20086;-67
2021/04/14 03:48:33;;;;;;;7.78;4.20;;;;;;;;;;5080016;28;20051;-67
2021/04/14 03:51:00;;;;;;;7.60;4.72;;;;;;;;;;5078941;28;20060;-67
2021/04/14 03:53:29;;;;;;;9.07;5.20;;;;;;;;;;5081529;28;20048;-67
2021/04/14 03:55:57;;;;;;;7.53;4.15;;;;;;;;;;5081999;28;20134;-67
2021/04/14 03:58:23;;;;;;;7.43;4.28;;;;;;;;;;5077960;28;20055;-67
2021/04/14 04:00:50;;;;;;;7.03;4.18;;;;;;;;;;5077373;28;20059;-67
2021/04/14 04:03:16;;;;;;;8.40;4.30;;;;;;;;;;5081994;28;20048;-67
2021/04/14 04:05:44;;;;;;;7.22;4.13;;;;;;;;;;5077187;28;20056;-67
2021/04/14 04:08:10;;;;;;;6.80;4.15;;;;;;;;;;5073792;28;20433;-67
2021/04/14 04:10:36;;;;;;;8.38;4.57;;;;;;;;;;5077730;28;20059;-67
2021/04/14 04:13:02;;;;;;;8.52;4.07;;;;;;;;;;5079109;28;20483;-68
2021/04/14 04:15:28;;;;;;;8.52;4.25;;;;;;;;;;5078823;28;20052;-67
2021/04/14 04:17:54;;;;;;;6.60;4.07;;;;;;;;;;5079280;28;20063;-68
2021/04/14 04:20:20;;;;;;;5.97;3.17;;;;;;;;;;5073109;28;20059;-67
2021/04/14 04:22:46;;;;;;;7.93;4.28;;;;;;;;;;5079105;28;20044;-67
2021/04/14 04:25:13;;;;;;;7.05;5.15;;;;;;;;;;5076356;28;20105;-67
2021/04/14 04:27:39;;;;;;;10.70;5.03;;;;;;;;;;5077547;28;20481;-67
2021/04/14 04:30:08;;;;;;;8.27;4.13;;;;;;;;;;5079043;28;20048;-67
2021/04/14 04:32:34;;;;;;;8.48;4.90;;;;;;;;;;5077342;28;20055;-68
2021/04/14 04:35:00;;;;;;;8.27;4.47;;;;;;;;;;5077577;28;20055;-68
2021/04/14 04:37:26;;;;;;;9.63;4.68;;;;;;;;;;5078599;28;20503;-67
2021/04/14 04:39:52;;;;;;;7.50;4.10;;;;;;;;;;5079137;28;20116;-67
2021/04/14 04:42:18;;;;;;;7.93;4.13;;;;;;;;;;5078844;28;20476;-67
2021/04/14 04:44:45;;;;;;;8.50;4.75;;;;;;;;;;5079482;28;20047;-68
2021/04/14 04:47:12;;;;;;;8.45;5.05;;;;;;;;;;5079286;28;20082;-68
2021/04/14 04:49:38;;;;;;;8.43;4.15;;;;;;;;;;5077753;28;20493;-67
2021/04/14 04:52:05;;;;;;;10.32;4.68;;;;;;;;;;5074567;28;20123;-67
2021/04/14 04:54:31;;;;;;;8.73;4.68;;;;;;;;;;5074751;28;20056;-67
2021/04/14 04:56:57;;;;;;;7.85;4.40;;;;;;;;;;5077444;28;20048;-67
2021/04/14 04:59:23;;;;;;;10.00;5.25;;;;;;;;;;5075710;28;20480;-66
2021/04/14 05:01:49;;;;;;;7.78;4.63;;;;;;;;;;5080671;28;20147;-69
2021/04/14 05:04:16;;;;;;;10.02;5.03;;;;;;;;;;5083116;28;20064;-66
2021/04/14 05:06:42;;;;;;;8.60;5.22;;;;;;;;;;5077797;28;20044;-67
2021/04/14 05:09:08;;;;;;;10.82;4.68;;;;;;;;;;5076223;28;20048;-67
2021/04/14 05:11:34;;;;;;;7.65;4.18;;;;;;;;;;5074833;28;20049;-67
2021/04/14 05:14:00;;;;;;;11.15;4.72;;;;;;;;;;5074261;28;20076;-67
2021/04/14 05:16:26;;;;;;;7.53;4.53;;;;;;;;;;5078325;28;20067;-68
2021/04/14 05:18:52;;;;;;;8.82;4.45;;;;;;;;;;5080036;28;20052;-68
2021/04/14 05:21:20;;;;;;;10.60;6.20;;;;;;;;;;5076686;28;20056;-68
2021/04/14 05:23:47;;;;;;;9.60;6.05;;;;;;;;;;5076417;28;20055;-68
2021/04/14 05:26:14;;;;;;;10.13;5.88;;;;;;;;;;5081454;28;20115;-67
2021/04/14 05:28:40;;;;;;;14.48;8.13;;;;;;;;;;5082083;28;20054;-67
2021/04/14 05:31:06;;;;;;;11.50;6.13;;;;;;;;;;5080297;28;20059;-67
2021/04/14 05:33:32;;;;;;;7.35;4.85;;;;;;;;;;5076266;28;21890;-68
2021/04/14 05:35:58;;;;;;;9.43;5.78;;;;;;;;;;5075105;28;20059;-67
2021/04/14 05:38:25;;;;;;;9.20;5.07;;;;;;;;;;5075290;28;20394;-67
2021/04/14 05:40:51;;;;;;;12.90;6.07;;;;;;;;;;5081087;28;20056;-68
2021/04/14 05:43:21;;;;;;;10.25;4.95;;;;;;;;;;5079951;28;20176;-68
2021/04/14 05:45:52;;;;;;;9.63;5.32;;;;;;;;;;5078691;28;20071;-68
2021/04/14 05:48:18;;;;;;;8.30;5.15;;;;;;;;;;5075827;28;20114;-68
2021/04/14 05:50:44;;;;;;;8.25;4.95;;;;;;;;;;5075947;28;20401;-68
2021/04/14 05:53:10;;;;;;;9.35;4.63;;;;;;;;;;5076529;28;20056;-68
2021/04/14 05:55:37;;;;;;;9.43;4.78;;;;;;;;;;5073690;28;20075;-68
2021/04/14 05:58:03;;;;;;;6.88;4.25;;;;;;;;;;5072506;28;20493;-67
2021/04/14 06:00:29;;;;;;;8.55;4.53;;;;;;;;;;5074663;28;20054;-68
2021/04/14 06:02:55;;;;;;;8.65;4.60;;;;;;;;;;5072864;28;20059;-68
2021/04/14 06:05:23;;;;;;;8.20;5.35;;;;;;;;;;5075768;28;20048;-68
2021/04/14 06:07:49;;;;;;;7.25;4.82;;;;;;;;;;5076117;28;20059;-68
2021/04/14 06:10:17;;;;;;;10.15;5.35;;;;;;;;;;5076568;28;20082;-68
2021/04/14 06:12:44;;;;;;;9.77;5.35;;;;;;;;;;5076412;28;20852;-69
2021/04/14 06:15:14;;;;;;;8.93;5.28;;;;;;;;;;5075320;28;20058;-68
2021/04/14 06:17:40;;;;;;;7.80;5.32;;;;;;;;;;5075720;28;20044;-67
2021/04/14 06:20:08;;;;;;;9.10;5.43;;;;;;;;;;5076321;28;20041;-66
2021/04/14 06:22:35;;;;;;;11.48;6.45;;;;;;;;;;5076880;28;20076;-67
2021/04/14 06:25:01;;;;;;;10.40;5.75;;;;;;;;;;5076354;28;20461;-67
2021/04/14 06:27:34;;;;;;;10.40;5.63;;;;;;;;;;5077790;28;20400;-66
2021/04/14 06:30:01;;;;;;;13.07;6.22;;;;;;;;;;5075616;28;20048;-67
2021/04/14 06:32:27;;;;;;;8.10;5.78;;;;;;;;;;5072576;28;20052;-67
2021/04/14 06:34:54;;;;;;;10.50;6.72;;;;;;;;;;5074764;28;20040;-67
2021/04/14 06:37:20;;;;;;;9.73;5.80;;;;;;;;;;5079167;28;20093;-66
2021/04/14 06:39:53;;;;;;;9.50;6.00;;;;;;;;;;5081925;28;20048;-67
2021/04/14 06:42:39;;;;;;;11.18;6.10;;;;;;;;;;5080140;28;20041;-68
2021/04/14 06:45:11;;;;;;;11.15;5.60;;;;;;;;;;5081901;28;20052;-68
2021/04/14 06:47:51;;;;;;;11.70;6.07;;;;;;;;;;5074037;28;20469;-67
2021/04/14 06:50:21;;;;;;;9.82;6.03;;;;;;;;;;5076103;28;20447;-68
2021/04/14 06:52:51;;;;;;;11.48;6.35;;;;;;;;;;5075931;28;20461;-67
2021/04/14 06:55:21;;;;;;;8.73;5.90;;;;;;;;;;5075135;28;20048;-66
2021/04/14 06:57:54;;;;;;;8.23;5.07;;;;;;;;;;5075055;28;20058;-67
2021/04/14 07:00:25;;;;;;;8.75;4.57;;;;;;;;;;5074232;28;20060;-66
2021/04/14 07:02:56;;;;;;;7.97;5.40;;;;;;;;;;5071124;28;20056;-66
2021/04/14 07:05:27;;;;;;;10.40;5.80;;;;;;;;;;5078983;28;20066;-68
2021/04/14 07:07:55;;;;;;;10.25;5.10;;;;;;;;;;5070696;28;20044;-64
2021/04/14 07:10:25;;;;;;;8.95;5.15;;;;;;;;;;5075599;28;20412;-64
2021/04/14 07:12:52;;;;;;;10.73;5.28;;;;;;;;;;5078420;28;20044;-64
2021/04/14 07:15:20;;;;;;;11.00;5.68;;;;;;;;;;5072006;28;20056;-65
2021/04/14 07:18:05;;;;;;;9.48;5.32;;;;;;;;;;5082651;28;20385;-65
2021/04/14 07:20:35;;;;;;;9.32;5.50;;;;;;;;;;5079549;28;20056;-65
2021/04/14 07:23:11;;;;;;;10.70;5.13;;;;;;;;;;5077108;28;20105;-68
2021/04/14 07:25:43;;;;;;;10.55;5.90;;;;;;;;;;5080852;28;20455;-64
2021/04/14 07:28:38;;;;;;;10.02;6.05;;;;;;;;;;5074098;28;20051;-66
2021/04/14 07:31:08;;;;;;;7.82;5.15;;;;;;;;;;5060544;28;20755;-66
2021/04/14 07:33:43;;;;;;;12.30;4.80;;;;;;;;;;5077751;28;20363;-69
2021/04/14 07:36:13;;;;;;;8.27;4.50;;;;;;;;;;5078516;28;20047;-66
2021/04/14 07:38:45;;;;;;;10.15;5.03;;;;;;;;;;5076552;28;20044;-67
2021/04/14 07:41:19;;;;;;;11.77;4.65;;;;;;;;;;5077358;28;20508;-66
2021/04/14 07:43:53;;;;;;;7.75;4.00;;;;;;;;;;5074299;28;20460;-66
2021/04/14 07:46:22;;;;;;;7.78;5.25;;;;;;;;;;5074797;28;20143;-65
2021/04/14 07:48:51;;;;;;;8.95;4.43;;;;;;;;;;5074402;28;20499;-64
2021/04/14 07:51:18;;;;;;;8.88;4.57;;;;;;;;;;5072503;28;20106;-65
2021/04/14 07:53:56;;;;;;;12.93;4.25;;;;;;;;;;5071120;28;20044;-65
2021/04/14 07:56:23;;;;;;;7.18;3.50;;;;;;;;;;5069560;28;20095;-65
2021/04/14 07:58:53;;;;;;;9.80;4.53;;;;;;;;;;5072012;28;20512;-65
2021/04/14 08:01:22;;;;;;;10.00;4.45;;;;;;;;;;5073196;28;20041;-64
2021/04/14 08:03:49;;;;;;;7.90;3.90;;;;;;;;;;5074595;28;20048;-66
2021/04/14 08:06:18;;;;;;;8.25;3.72;;;;;;;;;;5072728;28;20047;-65
2021/04/14 08:08:46;;;;;;;7.68;3.63;;;;;;;;;;5073108;28;20060;-66
2021/04/14 08:11:16;;;;;;;8.30;3.97;;;;;;;;;;5071471;28;20059;-65
2021/04/14 08:13:43;;;;;;;6.68;3.10;;;;;;;;;;5072314;28;20139;-65
2021/04/14 08:16:19;;;;;;;8.02;4.07;;;;;;;;;;5072228;28;20397;-65
2021/04/14 08:18:59;;;;;;;11.20;3.38;;;;;;;;;;5070611;28;20084;-65
2021/04/14 08:21:28;;;;;;;6.47;3.13;;;;;;;;;;5070593;28;20045;-65
2021/04/14 08:23:57;;;;;;;6.70;3.50;;;;;;;;;;5072358;28;20044;-68
2021/04/14 08:26:23;;;;;;;6.10;2.72;;;;;;;;;;5068944;28;20070;-65
2021/04/14 08:28:51;;;;;;;6.40;3.30;;;;;;;;;;5069938;28;20044;-65
2021/04/14 08:31:35;;;;;;;7.55;3.75;;;;;;;;;;5076759;28;20051;-66
2021/04/14 08:34:11;;;;;;;7.03;3.80;;;;;;;;;;5076389;28;20499;-65
2021/04/14 08:36:39;;;;;;;;;;;;;;;;;;5080232;28;20040;-65
2021/04/14 08:39:13;;;;;;;8.57;3.08;;;;;;;;;;5079877;28;19920;-65
2021/04/14 08:41:39;;;;;;;6.97;3.05;;;;;;;;;;5082312;28;20472;-65
2021/04/14 08:44:09;;;;;;;11.95;3.30;;;;;;;;;;5074798;28;20053;-64
2021/04/14 08:46:37;;;;;;;6.57;2.92;;;;;;;;;;5078475;28;20060;-65
2021/04/14 08:49:05;;;;;;;8.55;3.35;;;;;;;;;;5075650;28;20048;-64
2021/04/14 08:51:37;;;;;;;7.47;3.65;;;;;;;;;;5077631;28;20489;-65
2021/04/14 08:54:05;;;;;;;6.47;3.60;;;;;;;;;;5075155;28;20052;-64
2021/04/14 08:56:31;;;;;;;5.57;3.10;;;;;;;;;;5078259;28;20406;-65
2021/04/14 08:58:57;;;;;;;8.88;3.45;;;;;;;;;;5080609;28;20412;-66
2021/04/14 09:01:24;;;;;;;8.70;3.83;;;;;;;;;;5079844;28;20086;-66
2021/04/14 09:03:50;;;;;;;7.32;3.60;;;;;;;;;;5078844;28;20338;-66
2021/04/14 09:06:18;;;;;;;6.25;2.85;;;;;;;;;;5079555;28;20135;-66
2021/04/14 09:08:48;;;;;;;8.30;3.53;;;;;;;;;;5081874;28;20039;-66
2021/04/14 09:11:19;;;;;;;7.20;3.97;;;;;;;;;;5079731;28;20509;-66
2021/04/14 09:13:53;;;;;;;8.60;3.42;;;;;;;;;;5075684;28;20051;-64
2021/04/14 09:16:28;;;;;;;6.10;3.03;;;;;;;;;;5079688;28;20070;-64
2021/04/14 09:19:05;;;;;;;5.03;3.10;;;;;;;;;;5075431;28;20052;-64
2021/04/14 09:21:43;;;;;;;3.97;2.20;;;;;;;;;;5073680;28;20059;-64
2021/04/14 09:24:21;;;;;;;6.70;2.65;;;;;;;;;;5078894;28;20055;-65
2021/04/14 09:26:55;;;;;;;5.93;2.60;;;;;;;;;;5073067;28;20074;-65
2021/04/14 09:29:23;;;;;;;5.57;2.55;;;;;;;;;;5075765;28;20077;-64
2021/04/14 09:31:51;;;;;;;3.90;2.15;;;;;;;;;;5078391;28;20047;-65
2021/04/14 09:34:30;;;;;;;5.55;2.33;;;;;;;;;;5078935;28;20056;-65
2021/04/14 09:36:59;;;;;;;5.45;2.08;;;;;;;;;;5076390;28;20044;-65
2021/04/14 09:39:32;;;;;;;5.80;3.63;;;;;;;;;;5077867;28;20052;-65
2021/04/14 09:41:58;;;;;;;7.20;2.78;;;;;;;;;;5074996;28;20123;-65
2021/04/14 09:44:40;;;;;;;3.60;2.20;;;;;;;;;;5077929;28;20060;-65
2021/04/14 09:47:19;;;;;;;4.38;2.40;;;;;;;;;;5078076;28;20040;-65
2021/04/14 09:49:47;;;;;;;6.53;2.33;;;;;;;;;;5070380;28;20049;-65
2021/04/14 09:52:26;;;;;;;5.22;2.03;;;;;;;;;;5076808;28;20053;-65
2021/04/14 09:54:57;;;;;;;7.60;2.20;;;;;;;;;;5071850;28;20139;-65
2021/04/14 09:57:28;;;;;;;3.58;1.90;;;;;;;;;;5079256;28;20056;-65
2021/04/14 09:59:54;;;;;;;2.78;1.63;;;;;;;;;;5075670;28;20064;-65
2021/04/14 10:02:21;;;;;;;3.42;1.80;;;;;;;;;;5079669;28;20052;-65
2021/04/14 10:04:48;;;;;;;5.00;2.30;;;;;;;;;;5073751;28;20044;-65
2021/04/14 10:07:16;;;;;;;6.20;2.67;;;;;;;;;;5080414;28;20121;-65
2021/04/14 10:09:42;;;;;;;5.50;2.03;;;;;;;;;;5071078;28;20873;-65
2021/04/14 10:12:11;;;;;;;5.80;2.03;;;;;;;;;;5078114;28;20128;-65
2021/04/14 10:14:43;;;;;;;4.18;1.90;;;;;;;;;;5082904;28;20074;-65
2021/04/14 10:17:09;;;;;;;4.22;2.00;;;;;;;;;;5079652;28;20053;-65
2021/04/14 10:19:36;;;;;;;4.82;2.45;;;;;;;;;;5082898;28;20189;-65
2021/04/14 10:22:11;;;;;;;3.97;1.80;;;;;;;;;;5084126;28;20044;-65
2021/04/14 10:24:37;;;;;;;6.28;2.38;;;;;;;;;;5082311;28;20044;-65
2021/04/14 10:27:04;;;;;;;3.78;1.85;;;;;;;;;;5083771;28;20097;-65
2021/04/14 10:29:36;;;;;;;4.80;2.40;;;;;;;;;;5085493;28;20429;-65
2021/04/14 10:32:02;;;;;;;4.68;2.00;;;;;;;;;;5078465;28;20055;-65
2021/04/14 10:34:30;;;;;;;4.15;1.75;;;;;;;;;;5083584;28;20052;-65
2021/04/14 10:36:58;;;;;;;8.80;2.15;;;;;;;;;;5082408;28;20105;-65
2021/04/14 10:39:29;;;;;;;4.95;2.63;;;;;;;;;;5082590;28;20070;-65
2021/04/14 10:41:56;;;;;;;4.50;2.20;;;;;;;;;;5081777;28;20063;-65
2021/04/14 10:44:25;;;;;;;5.00;3.00;;;;;;;;;;5085061;28;20070;-65
2021/04/14 10:46:59;;;;;;;5.05;2.97;;;;;;;;;;5082962;28;20052;-65
2021/04/14 10:49:26;;;;;;;7.82;3.83;;;;;;;;;;5083848;28;20522;-65
2021/04/14 10:51:54;;;;;;;3.55;2.35;;;;;;;;;;5082578;28;20048;-66
2021/04/14 10:54:24;;;;;;;3.63;1.60;;;;;;;;;;5074894;28;20056;-65
2021/04/14 10:56:58;;;;;;;5.90;3.92;;;;;;;;;;5079399;28;20044;-65
2021/04/14 10:59:24;;;;;;;6.43;4.30;;;;;;;;;;5079615;28;20143;-66
2021/04/14 11:01:50;;;;;;;13.75;10.55;;;;;;;;;;5077615;28;20566;-66
2021/04/14 11:04:29;;;;;;;8.23;3.80;;;;;;;;;;5079961;28;20059;-65
2021/04/14 11:06:59;;;;;;;7.20;3.40;;;;;;;;;;5078037;28;20432;-65
2021/04/14 11:09:25;;;;;;;5.60;3.03;;;;;;;;;;5081474;28;20059;-65
2021/04/14 11:11:52;;;;;;;7.70;3.13;;;;;;;;;;5083654;28;20044;-65
2021/04/14 11:14:19;;;;;;;7.32;3.65;;;;;;;;;;5080694;28;20052;-65
2021/04/14 11:16:46;;;;;;;5.45;2.72;;;;;;;;;;5073308;28;20052;-66
2021/04/14 11:19:13;;;;;;;5.32;2.60;;;;;;;;;;5076000;28;20070;-65
2021/04/14 11:21:41;;;;;;;5.70;2.45;;;;;;;;;;5083128;28;20127;-65
2021/04/14 11:24:09;;;;;;;6.20;2.30;;;;;;;;;;5083453;28;20375;-65
2021/04/14 11:26:37;;;;;;;3.42;1.65;;;;;;;;;;5076924;28;20056;-65
2021/04/14 11:29:04;;;;;;;4.45;1.75;;;;;;;;;;5081817;28;20462;-64
2021/04/14 11:31:32;;;;;;;4.95;2.05;;;;;;;;;;5076461;28;20083;-65
2021/04/14 11:34:00;;;;;;;4.50;2.03;;;;;;;;;;5076936;28;20085;-65
2021/04/14 11:36:32;;;;;;;3.70;1.60;;;;;;;;;;5077733;28;20048;-65
2021/04/14 11:39:05;;;;;;;6.53;2.50;;;;;;;;;;5074327;28;20100;-65
2021/04/14 11:41:33;;;;;;;4.05;2.15;;;;;;;;;;5079576;28;20051;-65
2021/04/14 11:44:00;;;;;;;1.92;1.27;;;;;;;;;;5079680;28;20044;-66
2021/04/14 11:46:35;;;;;;;4.28;1.55;;;;;;;;;;5077585;28;20055;-67
2021/04/14 11:49:04;;;;;;;3.75;1.70;;;;;;;;;;5074724;28;20602;-65
2021/04/14 11:51:34;;;;;;;3.25;1.65;;;;;;;;;;5082937;28;20044;-66
2021/04/14 11:54:03;;;;;;;3.53;1.58;;;;;;;;;;5079816;28;20059;-67
2021/04/14 11:56:44;;;;;;;3.65;1.50;;;;;;;;;;5078109;28;20094;-67
2021/04/14 11:59:24;;;;;;;6.68;1.90;;;;;;;;;;5081592;28;20044;-65
2021/04/14 12:02:00;;;;;;;6.82;2.13;;;;;;;;;;5074873;28;20048;-66
2021/04/14 12:04:26;;;;;;;5.65;1.75;;;;;;;;;;5074307;28;20056;-66
2021/04/14 12:06:52;;;;;;;3.20;2.00;;;;;;;;;;5078259;28;20048;-65
2021/04/14 12:09:19;;;;;;;4.53;2.38;;;;;;;;;;5079811;28;20539;-65
2021/04/14 12:11:45;;;;;;;3.10;1.55;;;;;;;;;;5073948;28;20051;-66
2021/04/14 12:14:11;;;;;;;3.13;1.65;;;;;;;;;;5072149;28;20143;-69
2021/04/14 12:16:38;;;;;;;3.33;1.58;;;;;;;;;;5084487;28;20089;-64
2021/04/14 12:19:04;;;;;;;4.75;1.65;;;;;;;;;;5084160;28;20051;-67
2021/04/14 12:21:31;;;;;;;2.85;1.35;;;;;;;;;;5074561;28;20381;-68
2021/04/14 12:23:57;;;;;;;2.55;1.45;;;;;;;;;;5074946;28;20044;-68
2021/04/14 12:26:24;;;;;;;4.07;1.60;;;;;;;;;;5074114;28;20044;-66
2021/04/14 12:28:50;;;;;;;3.28;1.48;;;;;;;;;;5074291;28;20052;-67
2021/04/14 12:31:16;;;;;;;4.78;2.28;;;;;;;;;;5073294;28;20052;-66
2021/04/14 12:33:42;;;;;;;3.33;1.52;;;;;;;;;;5072992;28;20055;-67
2021/04/14 12:36:08;;;;;;;3.20;1.50;;;;;;;;;;5072854;28;20056;-66
2021/04/14 12:38:34;;;;;;;3.10;1.67;;;;;;;;;;5073059;28;20098;-65
2021/04/14 12:41:01;;;;;;;3.60;1.50;;;;;;;;;;5073967;28;20059;-65
2021/04/14 12:43:28;;;;;;;2.20;1.30;;;;;;;;;;5072813;28;20044;-64
2021/04/14 12:45:57;;;;;;;3.08;1.83;;;;;;;;;;5072761;28;20045;-65
2021/04/14 12:48:24;;;;;;;3.53;1.63;;;;;;;;;;5073443;28;20040;-64
2021/04/14 12:51:11;;;;;;;4.57;1.90;;;;;;;;;;5070235;28;20052;-67
2021/04/14 12:53:41;;;;;;;4.13;1.40;;;;;;;;;;5071288;28;20058;-65
2021/04/14 12:56:07;;;;;;;5.15;1.55;;;;;;;;;;5072682;28;20405;-64
2021/04/14 12:58:36;;;;;;;4.05;1.73;;;;;;;;;;5070314;28;20056;-65
2021/04/14 13:01:03;;;;;;;3.00;1.40;;;;;;;;;;5070332;28;20086;-65
2021/04/14 13:03:35;;;;;;;4.63;1.40;;;;;;;;;;5069682;28;20066;-65
2021/04/14 13:06:05;;;;;;;3.83;1.83;;;;;;;;;;5073943;28;20099;-65
2021/04/14 13:08:35;;;;;;;3.30;1.50;;;;;;;;;;5074201;28;20489;-65
2021/04/14 13:11:05;;;;;;;5.28;2.35;;;;;;;;;;5068597;28;20815;-65
2021/04/14 13:13:32;;;;;;;6.28;2.05;;;;;;;;;;5073299;28;20362;-64
2021/04/14 13:16:01;;;;;;;6.13;1.92;;;;;;;;;;5072046;28;20465;-64
2021/04/14 13:18:27;;;;;;;5.07;1.67;;;;;;;;;;5070233;28;21552;-64
2021/04/14 13:20:55;;;;;;;4.82;2.08;;;;;;;;;;5073637;28;20485;-64
2021/04/14 13:23:26;;;;;;;5.05;1.92;;;;;;;;;;5072127;28;20465;-63
2021/04/14 13:25:54;;;;;;;3.17;1.73;;;;;;;;;;5073352;28;20416;-63
2021/04/14 13:28:23;;;;;;;3.47;1.70;;;;;;;;;;5072466;28;20062;-64
2021/04/14 13:30:53;;;;;;;11.93;3.20;;;;;;;;;;5073183;28;20048;-63
2021/04/14 13:33:25;;;;;;;5.82;2.63;;;;;;;;;;5070207;28;20063;-63
2021/04/14 13:35:55;;;;;;;7.03;1.92;;;;;;;;;;5073631;28;20167;-63
2021/04/14 13:38:23;;;;;;;4.05;1.88;;;;;;;;;;5072143;28;20465;-63
2021/04/14 13:40:52;;;;;;;5.13;2.28;;;;;;;;;;5074257;28;20044;-63
2021/04/14 13:43:26;;;;;;;3.42;1.67;;;;;;;;;;5072411;28;20040;-63
2021/04/14 13:45:55;;;;;;;5.00;1.77;;;;;;;;;;5074168;28;20052;-68
2021/04/14 13:48:25;;;;;;;3.58;1.88;;;;;;;;;;5076101;28;20056;-67
2021/04/14 13:50:55;;;;;;;2.92;1.50;;;;;;;;;;5078740;28;20354;-68
2021/04/14 13:53:23;;;;;;;3.25;1.70;;;;;;;;;;5075555;28;20410;-66
2021/04/14 13:55:58;;;;;;;3.35;1.85;;;;;;;;;;5074910;28;20060;-68
2021/04/14 13:58:32;;;;;;;4.97;2.08;;;;;;;;;;5076540;28;20080;-65
2021/04/14 14:01:02;;;;;;;6.97;2.53;;;;;;;;;;5079378;28;20048;-65
2021/04/14 14:03:29;;;;;;;5.97;2.65;;;;;;;;;;5073491;28;20052;-68
2021/04/14 14:05:56;;;;;;;7.53;3.08;;;;;;;;;;5083614;28;20055;-66
2021/04/14 14:08:30;;;;;;;5.43;2.15;;;;;;;;;;5076629;28;20060;-67
2021/04/14 14:10:59;;;;;;;7.13;2.30;;;;;;;;;;5079594;28;20084;-66
2021/04/14 14:13:27;;;;;;;5.22;2.30;;;;;;;;;;5076471;28;20437;-66
2021/04/14 14:16:01;;;;;;;3.70;2.30;;;;;;;;;;5080207;28;20074;-66
2021/04/14 14:18:28;;;;;;;4.53;2.00;;;;;;;;;;5072365;28;20059;-66
2021/04/14 14:20:57;;;;;;;4.95;1.95;;;;;;;;;;5074042;28;20052;-66
2021/04/14 14:23:24;;;;;;;6.60;2.47;;;;;;;;;;5073586;28;20041;-67
2021/04/14 14:25:51;;;;;;;3.22;2.03;;;;;;;;;;5078146;28;20044;-67
2021/04/14 14:28:17;;;;;;;3.50;2.38;;;;;;;;;;5076164;28;20420;-67
2021/04/14 14:30:43;;;;;;;5.82;1.80;;;;;;;;;;5076152;28;20148;-66
2021/04/14 14:33:09;;;;;;;2.90;1.70;;;;;;;;;;5072900;28;20080;-66
2021/04/14 14:35:36;;;;;;;5.25;2.30;;;;;;;;;;5075327;28;20059;-66
2021/04/14 14:38:11;;;;;;;5.43;2.25;;;;;;;;;;5076005;28;20067;-66
2021/04/14 14:40:40;;;;;;;4.13;2.03;;;;;;;;;;5074896;28;20135;-66
2021/04/14 14:43:11;;;;;;;5.93;3.65;;;;;;;;;;5078320;28;20452;-66
2021/04/14 14:45:40;;;;;;;7.03;2.67;;;;;;;;;;5079154;28;20064;-66
2021/04/14 14:48:10;;;;;;;4.25;2.50;;;;;;;;;;5075220;28;20051;-65